Ever Unicorn — 9V7963 — position and weather

sailwx.info

Track history (hours):
 
Tides and Currents Weather Stations Pressure Air Temp Water Temp Dewpoint Dewpoint Depression Visibility Wind Speed Wind Dir Waves Ship Positions

Ever Unicorn

Last reported at 2016-Apr-22 17:33 UTC. Time now 2016-May-05 10:24 UTC.
Position N 38°12' W 124°27'.
Warning: this ship's position is 12 days out of date.

Length 285 m; draft 10.3 m.

Type: Ship (hazmat cat D). MMSI: 564995000.

Date/timePositionNaut miles runAvg speedWind from/ knotsBaromVisibWave heightAir tempDewpointWater temp
2016-Apr-22 17:33N 38°12' W 124°27'1413.8
2016-Apr-22 16:33N 38°12' W 124°10'1313.3
2016-Apr-22 15:33N 38°11' W 123°53'1313.3
2016-Apr-22 14:33N 38°10' W 123°36'1313.2
2016-Apr-22 13:33N 38°08' W 123°19'1414.1
2016-Apr-22 12:33N 37°58' W 123°07'1514.8
2016-Apr-22 11:33N 37°51' W 122°51'1313.1
2016-Apr-22 10:34N 37°47' W 122°35'1211.1
2016-Apr-22 09:31N 37°48' W 122°20'0 0.0
2016-Apr-22 08:34N 37°48' W 122°20'0 0.0
2016-Apr-22 07:33N 37°48' W 122°20'0 0.0
2016-Apr-22 06:34N 37°48' W 122°20'0 0.0
2016-Apr-22 05:33N 37°48' W 122°20'0 0.0
2016-Apr-22 04:33N 37°48' W 122°20'0 0.0
2016-Apr-22 03:33N 37°48' W 122°20'0 0.0
2016-Apr-22 02:34N 37°48' W 122°20'0 0.0
2016-Apr-22 01:33N 37°48' W 122°20'0 0.0
2016-Apr-22 00:34N 37°48' W 122°20'0 0.0
2016-Apr-21 23:34N 37°48' W 122°20'0 0.0
2016-Apr-21 22:34N 37°48' W 122°20'0 0.0
2016-Apr-21 21:33N 37°48' W 122°20'0 0.0
2016-Apr-21 20:34N 37°48' W 122°20'0 0.0
2016-Apr-21 19:34N 37°48' W 122°20'0 0.0
2016-Apr-21 18:33N 37°48' W 122°20'0 0.0
2016-Apr-21 17:33N 37°48' W 122°20'0 0.0
2016-Apr-21 16:34N 37°48' W 122°20'0 0.0
2016-Apr-21 15:34N 37°48' W 122°20'0 0.0
2016-Apr-21 14:34N 37°48' W 122°20'0 0.0
2016-Apr-21 13:34N 37°48' W 122°20'0 0.4
2016-Apr-21 12:34N 37°49' W 122°20'5 5.3
2016-Apr-21 11:34N 37°49' W 122°27'1110.8
2016-Apr-21 10:33N 37°45' W 122°39'7 6.6
2016-Apr-21 09:33N 37°38' W 122°40'9 8.5
2016-Apr-21 08:33N 37°30' W 122°40'9 8.7
2016-Apr-21 07:33N 37°21' W 122°40'7 6.8
2016-Apr-21 06:33N 37°15' W 122°44'1 1.0
2016-Apr-21 05:33N 37°14' W 122°44'1 0.7
2016-Apr-21 04:33N 37°14' W 122°45'1 0.7
2016-Apr-21 03:33N 37°13' W 122°45'1 0.7
2016-Apr-21 02:33N 37°12' W 122°45'2 2.1
2016-Apr-21 01:33N 37°11' W 122°44'1 0.8
2016-Apr-21 00:33N 37°10' W 122°45'1 0.9
2016-Apr-20 23:33N 37°10' W 122°46'1 1.1
2016-Apr-20 22:33N 37°09' W 122°47'1 1.2
2016-Apr-20 21:33N 37°08' W 122°48'1 1.3
2016-Apr-20 20:33N 37°07' W 122°49'1 1.4
2016-Apr-20 19:33N 37°06' W 122°50'2 1.6
2016-Apr-20 18:33N 37°05' W 122°52'1 1.4
2016-Apr-20 17:33N 37°04' W 122°52'1 1.3
2016-Apr-20 16:33N 37°03' W 122°53'1 1.0
2016-Apr-20 15:33N 37°02' W 122°54'1 1.0
2016-Apr-20 14:33N 37°01' W 122°55'3 3.3
2016-Apr-20 13:33N 36°58' W 122°53'1211.9
2016-Apr-20 12:33N 36°49' W 122°44'1211.9
2016-Apr-20 11:33N 36°38' W 122°38'1312.6
2016-Apr-20 10:33N 36°27' W 122°31'1212.4
2016-Apr-20 09:33N 36°15' W 122°25'1212.1
2016-Apr-20 08:33N 36°05' W 122°18'1212.4
2016-Apr-20 07:33N 35°53' W 122°12'1312.6
2016-Apr-20 06:33N 35°42' W 122°05'1212.4
2016-Apr-20 05:33N 35°31' W 121°59'1313.0
2016-Apr-20 04:33N 35°19' W 121°52'3213.1
2016-Apr-20 02:06N 34°50' W 121°35'9111.9
2016-Apr-19 18:28N 34°13' W 119°54'1212.8
2016-Apr-19 17:33N 34°10' W 119°41'1313.0
2016-Apr-19 16:33N 34°07' W 119°26'1313.1
2016-Apr-19 15:34N 34°02' W 119°11'1312.5
2016-Apr-19 14:34N 33°56' W 118°58'1111.5
2016-Apr-19 13:33N 33°50' W 118°46'1111.5
2016-Apr-19 12:33N 33°45' W 118°34'1111.2
2016-Apr-19 11:33N 33°39' W 118°22'7 6.6
2016-Apr-19 10:33N 33°43' W 118°16'1 1.2
2016-Apr-19 09:30N 33°44' W 118°15'0 0.0
2016-Apr-19 08:33N 33°44' W 118°15'0 0.0
2016-Apr-19 07:33N 33°44' W 118°15'0 0.0
2016-Apr-19 06:33N 33°44' W 118°15'0 0.0
2016-Apr-19 05:33N 33°44' W 118°15'0 0.0
2016-Apr-19 04:33N 33°44' W 118°15'0 0.0
2016-Apr-19 03:33N 33°44' W 118°15'0 0.0
2016-Apr-19 02:33N 33°44' W 118°15'0 0.0
2016-Apr-19 01:33N 33°44' W 118°15'0 0.0
2016-Apr-19 00:33N 33°44' W 118°15'0 0.0
2016-Apr-18 23:33N 33°44' W 118°15'0 0.0
2016-Apr-18 22:33N 33°44' W 118°15'0 0.0
2016-Apr-18 21:33N 33°44' W 118°15'0 0.0
2016-Apr-18 20:33N 33°44' W 118°15'0 0.0
2016-Apr-18 19:33N 33°44' W 118°15'0 0.0
2016-Apr-18 18:30N 33°44' W 118°15'0 0.0
2016-Apr-18 17:33N 33°44' W 118°15'0 0.0
2016-Apr-18 16:33N 33°44' W 118°15'0 0.0
2016-Apr-18 15:33N 33°44' W 118°15'0 0.0
2016-Apr-18 14:33N 33°44' W 118°15'0 0.0
2016-Apr-18 13:33N 33°44' W 118°15'0 0.0
2016-Apr-18 12:33N 33°44' W 118°15'0 0.0
2016-Apr-18 11:33N 33°44' W 118°15'0 0.0
2016-Apr-18 10:33N 33°44' W 118°15'0 0.0
2016-Apr-18 09:33N 33°44' W 118°15'0 0.0
2016-Apr-18 08:33N 33°44' W 118°15'0 0.0
2016-Apr-18 07:33N 33°44' W 118°15'0 0.0
2016-Apr-18 06:33N 33°44' W 118°15'0 0.0
2016-Apr-18 05:33N 33°44' W 118°15'0 0.0
2016-Apr-18 04:33N 33°44' W 118°15'0 0.0
2016-Apr-18 03:33N 33°44' W 118°15'0 0.0
2016-Apr-18 02:33N 33°44' W 118°15'0 0.0
2016-Apr-18 01:33N 33°44' W 118°15'0 0.0
2016-Apr-18 00:33N 33°44' W 118°15'0 0.0
2016-Apr-17 23:33N 33°44' W 118°15'0 0.0
2016-Apr-17 22:33N 33°44' W 118°15'0 0.0
2016-Apr-17 21:33N 33°44' W 118°15'0 0.0
2016-Apr-17 20:33N 33°44' W 118°15'0 0.0
2016-Apr-17 19:33N 33°44' W 118°15'0 0.0
2016-Apr-17 18:33N 33°44' W 118°15'0 0.0
2016-Apr-17 17:33N 33°44' W 118°15'0 0.0
2016-Apr-17 16:33N 33°44' W 118°15'0 0.0
2016-Apr-17 15:33N 33°44' W 118°15'0 0.0
2016-Apr-17 14:33N 33°44' W 118°15'0 0.0
2016-Apr-17 13:33N 33°44' W 118°15'0 0.4
2016-Apr-17 12:33N 33°44' W 118°15'7 6.5
2016-Apr-17 11:34N 33°37' W 118°14'9 8.9
2016-Apr-17 10:34N 33°36' W 118°25'1211.5
2016-Apr-17 09:33N 33°36' W 118°39'1211.5
2016-Apr-17 08:33N 33°37' W 118°53'2812.0
2016-Apr-17 06:15N 33°38' W 119°26'913.8
2016-Apr-17 05:34N 33°38' W 119°37'1514.0
2016-Apr-17 04:30N 33°38' W 119°55'1414.6
2016-Apr-17 03:33N 33°38' W 120°12'1414.3
2016-Apr-17 02:33N 33°38' W 120°29'1414.3
2016-Apr-17 01:33N 33°38' W 120°46'1414.2
2016-Apr-17 00:33N 33°38' W 121°03'1514.8
2016-Apr-16 23:33N 33°38' W 121°21'1414.3
2016-Apr-16 22:33N 33°38' W 121°38'1514.5
2016-Apr-16 21:33N 33°38' W 121°55'1514.8
2016-Apr-16 20:33N 33°38' W 122°13'1515.2
2016-Apr-16 19:33N 33°38' W 122°31'1515.3
2016-Apr-16 18:34N 33°38' W 122°50'1515.5
2016-Apr-16 17:33N 33°38' W 123°08'1514.6
2016-Apr-16 16:33N 33°38' W 123°26'1414.2
2016-Apr-16 15:33N 33°38' W 123°43'3114.3
2016-Apr-16 13:23N 33°38' W 124°20'1214.5
2016-Apr-16 12:31N 33°41' W 124°35'1717.3
2016-Apr-16 11:33N 33°51' W 124°50'1717.5
2016-Apr-16 10:33N 34°02' W 125°07'1817.5
2016-Apr-16 09:33N 34°13' W 125°23'1917.4
2016-Apr-16 08:28N 34°25' W 125°41'1617.7
2016-Apr-16 07:33N 34°35' W 125°56'1817.5
2016-Apr-16 06:33N 34°46' W 126°13'1817.6
2016-Apr-16 05:33N 34°57' W 126°30'1817.7
2016-Apr-16 04:33N 35°08' W 126°47'1817.7
2016-Apr-16 03:33N 35°19' W 127°03'1817.8
2016-Apr-16 02:33N 35°30' W 127°21'  
Track history (hours):
 
Tides and Currents Weather Stations Pressure Air Temp Water Temp Dewpoint Dewpoint Depression Visibility Wind Speed Wind Dir Waves Ship Positions

Ever Unicorn

Last reported at 2016-Apr-22 17:33 UTC. Time now 2016-May-05 10:24 UTC.
Position N 38°12' W 124°27'.
Warning: this ship's position is 12 days out of date.

Length 285 m; draft 10.3 m.

Type: Ship (hazmat cat D). MMSI: 564995000.

Date/timePositionNaut miles runAvg speedWind from/ knotsBaromVisibWave heightAir tempDewpointWater temp
2016-Apr-22 17:33N 38°12' W 124°27'1413.8
2016-Apr-22 16:33N 38°12' W 124°10'1313.3
2016-Apr-22 15:33N 38°11' W 123°53'1313.3
2016-Apr-22 14:33N 38°10' W 123°36'1313.2
2016-Apr-22 13:33N 38°08' W 123°19'1414.1
2016-Apr-22 12:33N 37°58' W 123°07'1514.8
2016-Apr-22 11:33N 37°51' W 122°51'1313.1
2016-Apr-22 10:34N 37°47' W 122°35'1211.1
2016-Apr-22 09:31N 37°48' W 122°20'0 0.0
2016-Apr-22 08:34N 37°48' W 122°20'0 0.0
2016-Apr-22 07:33N 37°48' W 122°20'0 0.0
2016-Apr-22 06:34N 37°48' W 122°20'0 0.0
2016-Apr-22 05:33N 37°48' W 122°20'0 0.0
2016-Apr-22 04:33N 37°48' W 122°20'0 0.0
2016-Apr-22 03:33N 37°48' W 122°20'0 0.0
2016-Apr-22 02:34N 37°48' W 122°20'0 0.0
2016-Apr-22 01:33N 37°48' W 122°20'0 0.0
2016-Apr-22 00:34N 37°48' W 122°20'0 0.0
2016-Apr-21 23:34N 37°48' W 122°20'0 0.0
2016-Apr-21 22:34N 37°48' W 122°20'0 0.0
2016-Apr-21 21:33N 37°48' W 122°20'0 0.0
2016-Apr-21 20:34N 37°48' W 122°20'0 0.0
2016-Apr-21 19:34N 37°48' W 122°20'0 0.0
2016-Apr-21 18:33N 37°48' W 122°20'0 0.0
2016-Apr-21 17:33N 37°48' W 122°20'0 0.0
2016-Apr-21 16:34N 37°48' W 122°20'0 0.0
2016-Apr-21 15:34N 37°48' W 122°20'0 0.0
2016-Apr-21 14:34N 37°48' W 122°20'0 0.0
2016-Apr-21 13:34N 37°48' W 122°20'0 0.4
2016-Apr-21 12:34N 37°49' W 122°20'5 5.3
2016-Apr-21 11:34N 37°49' W 122°27'1110.8
2016-Apr-21 10:33N 37°45' W 122°39'7 6.6
2016-Apr-21 09:33N 37°38' W 122°40'9 8.5
2016-Apr-21 08:33N 37°30' W 122°40'9 8.7
2016-Apr-21 07:33N 37°21' W 122°40'7 6.8
2016-Apr-21 06:33N 37°15' W 122°44'1 1.0
2016-Apr-21 05:33N 37°14' W 122°44'1 0.7
2016-Apr-21 04:33N 37°14' W 122°45'1 0.7
2016-Apr-21 03:33N 37°13' W 122°45'1 0.7
2016-Apr-21 02:33N 37°12' W 122°45'2 2.1
2016-Apr-21 01:33N 37°11' W 122°44'1 0.8
2016-Apr-21 00:33N 37°10' W 122°45'1 0.9
2016-Apr-20 23:33N 37°10' W 122°46'1 1.1
2016-Apr-20 22:33N 37°09' W 122°47'1 1.2
2016-Apr-20 21:33N 37°08' W 122°48'1 1.3
2016-Apr-20 20:33N 37°07' W 122°49'1 1.4
2016-Apr-20 19:33N 37°06' W 122°50'2 1.6
2016-Apr-20 18:33N 37°05' W 122°52'1 1.4
2016-Apr-20 17:33N 37°04' W 122°52'1 1.3
2016-Apr-20 16:33N 37°03' W 122°53'1 1.0
2016-Apr-20 15:33N 37°02' W 122°54'1 1.0
2016-Apr-20 14:33N 37°01' W 122°55'3 3.3
2016-Apr-20 13:33N 36°58' W 122°53'1211.9
2016-Apr-20 12:33N 36°49' W 122°44'1211.9
2016-Apr-20 11:33N 36°38' W 122°38'1312.6
2016-Apr-20 10:33N 36°27' W 122°31'1212.4
2016-Apr-20 09:33N 36°15' W 122°25'1212.1
2016-Apr-20 08:33N 36°05' W 122°18'1212.4
2016-Apr-20 07:33N 35°53' W 122°12'1312.6
2016-Apr-20 06:33N 35°42' W 122°05'1212.4
2016-Apr-20 05:33N 35°31' W 121°59'1313.0
2016-Apr-20 04:33N 35°19' W 121°52'3213.1
2016-Apr-20 02:06N 34°50' W 121°35'9111.9
2016-Apr-19 18:28N 34°13' W 119°54'1212.8
2016-Apr-19 17:33N 34°10' W 119°41'1313.0
2016-Apr-19 16:33N 34°07' W 119°26'1313.1
2016-Apr-19 15:34N 34°02' W 119°11'1312.5
2016-Apr-19 14:34N 33°56' W 118°58'1111.5
2016-Apr-19 13:33N 33°50' W 118°46'1111.5
2016-Apr-19 12:33N 33°45' W 118°34'1111.2
2016-Apr-19 11:33N 33°39' W 118°22'7 6.6
2016-Apr-19 10:33N 33°43' W 118°16'1 1.2
2016-Apr-19 09:30N 33°44' W 118°15'0 0.0
2016-Apr-19 08:33N 33°44' W 118°15'0 0.0
2016-Apr-19 07:33N 33°44' W 118°15'0 0.0
2016-Apr-19 06:33N 33°44' W 118°15'0 0.0
2016-Apr-19 05:33N 33°44' W 118°15'0 0.0
2016-Apr-19 04:33N 33°44' W 118°15'0 0.0
2016-Apr-19 03:33N 33°44' W 118°15'0 0.0
2016-Apr-19 02:33N 33°44' W 118°15'0 0.0
2016-Apr-19 01:33N 33°44' W 118°15'0 0.0
2016-Apr-19 00:33N 33°44' W 118°15'0 0.0
2016-Apr-18 23:33N 33°44' W 118°15'0 0.0
2016-Apr-18 22:33N 33°44' W 118°15'0 0.0
2016-Apr-18 21:33N 33°44' W 118°15'0 0.0
2016-Apr-18 20:33N 33°44' W 118°15'0 0.0
2016-Apr-18 19:33N 33°44' W 118°15'0 0.0
2016-Apr-18 18:30N 33°44' W 118°15'0 0.0
2016-Apr-18 17:33N 33°44' W 118°15'0 0.0
2016-Apr-18 16:33N 33°44' W 118°15'0 0.0
2016-Apr-18 15:33N 33°44' W 118°15'0 0.0
2016-Apr-18 14:33N 33°44' W 118°15'0 0.0
2016-Apr-18 13:33N 33°44' W 118°15'0 0.0
2016-Apr-18 12:33N 33°44' W 118°15'0 0.0
2016-Apr-18 11:33N 33°44' W 118°15'0 0.0
2016-Apr-18 10:33N 33°44' W 118°15'0 0.0
2016-Apr-18 09:33N 33°44' W 118°15'0 0.0
2016-Apr-18 08:33N 33°44' W 118°15'0 0.0
2016-Apr-18 07:33N 33°44' W 118°15'0 0.0
2016-Apr-18 06:33N 33°44' W 118°15'0 0.0
2016-Apr-18 05:33N 33°44' W 118°15'0 0.0
2016-Apr-18 04:33N 33°44' W 118°15'0 0.0
2016-Apr-18 03:33N 33°44' W 118°15'0 0.0
2016-Apr-18 02:33N 33°44' W 118°15'0 0.0
2016-Apr-18 01:33N 33°44' W 118°15'0 0.0
2016-Apr-18 00:33N 33°44' W 118°15'0 0.0
2016-Apr-17 23:33N 33°44' W 118°15'0 0.0
2016-Apr-17 22:33N 33°44' W 118°15'0 0.0
2016-Apr-17 21:33N 33°44' W 118°15'0 0.0
2016-Apr-17 20:33N 33°44' W 118°15'0 0.0
2016-Apr-17 19:33N 33°44' W 118°15'0 0.0
2016-Apr-17 18:33N 33°44' W 118°15'0 0.0
2016-Apr-17 17:33N 33°44' W 118°15'0 0.0
2016-Apr-17 16:33N 33°44' W 118°15'0 0.0
2016-Apr-17 15:33N 33°44' W 118°15'0 0.0
2016-Apr-17 14:33N 33°44' W 118°15'0 0.0
2016-Apr-17 13:33N 33°44' W 118°15'0 0.4
2016-Apr-17 12:33N 33°44' W 118°15'7 6.5
2016-Apr-17 11:34N 33°37' W 118°14'9 8.9
2016-Apr-17 10:34N 33°36' W 118°25'1211.5
2016-Apr-17 09:33N 33°36' W 118°39'1211.5
2016-Apr-17 08:33N 33°37' W 118°53'2812.0
2016-Apr-17 06:15N 33°38' W 119°26'913.8
2016-Apr-17 05:34N 33°38' W 119°37'1514.0
2016-Apr-17 04:30N 33°38' W 119°55'1414.6
2016-Apr-17 03:33N 33°38' W 120°12'1414.3
2016-Apr-17 02:33N 33°38' W 120°29'1414.3
2016-Apr-17 01:33N 33°38' W 120°46'1414.2
2016-Apr-17 00:33N 33°38' W 121°03'1514.8
2016-Apr-16 23:33N 33°38' W 121°21'1414.3
2016-Apr-16 22:33N 33°38' W 121°38'1514.5
2016-Apr-16 21:33N 33°38' W 121°55'1514.8
2016-Apr-16 20:33N 33°38' W 122°13'1515.2
2016-Apr-16 19:33N 33°38' W 122°31'1515.3
2016-Apr-16 18:34N 33°38' W 122°50'1515.5
2016-Apr-16 17:33N 33°38' W 123°08'1514.6
2016-Apr-16 16:33N 33°38' W 123°26'1414.2
2016-Apr-16 15:33N 33°38' W 123°43'3114.3
2016-Apr-16 13:23N 33°38' W 124°20'1214.5
2016-Apr-16 12:31N 33°41' W 124°35'1717.3
2016-Apr-16 11:33N 33°51' W 124°50'1717.5
2016-Apr-16 10:33N 34°02' W 125°07'1817.5
2016-Apr-16 09:33N 34°13' W 125°23'1917.4
2016-Apr-16 08:28N 34°25' W 125°41'1617.7
2016-Apr-16 07:33N 34°35' W 125°56'1817.5
2016-Apr-16 06:33N 34°46' W 126°13'1817.6
2016-Apr-16 05:33N 34°57' W 126°30'1817.7
2016-Apr-16 04:33N 35°08' W 126°47'1817.7
2016-Apr-16 03:33N 35°19' W 127°03'1817.8
2016-Apr-16 02:33N 35°30' W 127°21'  

Dump ship's entire track history